Mililani, HI (96789)

11:03 PM HST on August 21, 2014 (GMT -1000)
Mililani Mauka | Change Station
CLOSE
Current Station
Personal Weather Station
Location: Mililani, HI
Elevation: 807 ft
Nearby Weather Stations

Elev 807 ft 21.47 °N, 158.01 °W | Updated 10 minutes ago

Mostly Cloudy
Mostly Cloudy
73.9 °F
Feels Like 73 °F
N
4.7
Wind Variable Wind from NE

Today
High -- | Low -- °F
--% Chance of Precip.
Yesterday
High -- | Low -- °F
Precip. -- in
6:12 AM 6:57 PM
Waning Crescent, 9% visible
Pressure 30.02 in
Visibility 10.0 miles
Clouds Scattered Clouds 2800 ft
Mostly Cloudy 3500 ft
Mostly Cloudy 4600 ft
Heat Index 73 °F
Dew Point 69 °F
Humidity 84%
Rainfall 0.00 in
Snow Depth Not available.
UV 0 out of 12
Pollen Not available.
Air Quality Not available.
Flu Activity Not available.
METAR PHHI 220858Z AUTO 09003KT 10SM SCT028 BKN035 BKN046 25/20 A3006 RMK AO2 SLP166 T02450201 50005 $

More Conditions Fewer Conditions

Pressure 30.02 in
Visibility 10.0 miles
Clouds Scattered Clouds 2800 ft
Mostly Cloudy 3500 ft
Mostly Cloudy 4600 ft
Heat Index 73 °F
Dew Point 69 °F
Humidity 84%
Rainfall 0.00 in
Snow Depth Not available.
UV 0 out of 12
Pollen Not available.
Air Quality Not available.
Flu Activity Not available.
METAR PHHI 220858Z AUTO 09003KT 10SM SCT028 BKN035 BKN046 25/20 A3006 RMK AO2 SLP166 T02450201 50005 $

More Conditions Fewer Conditions

10-Day Weather Forecast

Almanac

Astronomy

Aug. 21, 2014 Rise Set
Actual Time 6:12 AM HST 6:57 PM HST
Civil Twilight 5:49 AM HST 7:20 PM HST
Nautical Twilight 5:22 AM HST 7:47 PM HST
Astronomical Twilight 4:55 AM HST 8:14 PM HST
Moon 3:04 AM HST (8/21) 4:24 PM HST (8/21)
Length of Visible Light 13h 30m
Length of Day
12h 45m
Tomorrow will be 1m 7s shorter.
Waning Crescent, 9% of the Moon is Illuminated
Aug 22
Waning Crescent
Aug 25
New
Sep 2
First Quarter
Sep 8
Full
Sep 15
Last Quarter

Yesterday's Extremes

State Highs State Lows

Community

WunderPhotos

Upload Photos

1,746,146 photos uploaded!

Nearby

Snow Depth

Station Depth Elevation
No new snow has been reported.

Earthquake Activity

City Distance Mag. Time & Date
No recent earthquake activity has been reported nearby.
Minimum magnitude displayed is 2.5.

Coastal Water Temperatures

Place Temperature
No Stations Reporting

Nearby Weather Stations